createdAt,value
2023-04-01T00:00:55.339Z,93.20
2023-04-01T00:03:24.550Z,93.40
2023-04-01T00:05:52.787Z,93.70
2023-04-01T00:08:20.657Z,93.70
2023-04-01T00:10:48.484Z,94.00
2023-04-01T00:13:16.566Z,93.70
2023-04-01T00:15:44.831Z,94.30
2023-04-01T00:18:12.989Z,94.30
2023-04-01T00:20:44.998Z,94.10
2023-04-01T00:23:12.996Z,94.90
2023-04-01T00:25:40.737Z,94.90
2023-04-01T00:28:08.389Z,95.00
2023-04-01T00:30:37.595Z,95.50
2023-04-01T00:33:06.098Z,95.60
2023-04-01T00:35:34.060Z,95.70
2023-04-01T00:38:01.863Z,95.70
2023-04-01T00:40:36.987Z,95.70
2023-04-01T00:43:11.066Z,95.90
2023-04-01T00:45:41.746Z,96.40
2023-04-01T00:48:19.618Z,95.50
2023-04-01T00:51:12.665Z,94.80
2023-04-01T00:53:42.687Z,94.40
2023-04-01T00:56:18.470Z,94.50
2023-04-01T00:58:52.321Z,93.70
2023-04-01T01:01:22.899Z,93.90
2023-04-01T01:03:50.732Z,94.40
2023-04-01T01:06:41.520Z,93.80
2023-04-01T01:09:24.175Z,94.50
2023-04-01T01:11:54.837Z,94.70
2023-04-01T01:14:46.303Z,94.20
2023-04-01T01:17:24.769Z,94.80
2023-04-01T01:20:39.462Z,94.10
2023-04-01T01:23:28.546Z,94.50
2023-04-01T01:25:56.926Z,94.80
2023-04-01T01:28:33.485Z,94.80
2023-04-01T01:31:05.065Z,94.40
2023-04-01T01:33:54.730Z,94.90
2023-04-01T01:36:22.731Z,95.60
2023-04-01T01:38:52.143Z,95.20
2023-04-01T01:41:21.260Z,95.50
2023-04-01T01:43:52.824Z,95.40
2023-04-01T01:46:24.473Z,94.80
2023-04-01T01:48:53.406Z,94.00
2023-04-01T01:51:22.744Z,94.60
2023-04-01T01:53:50.801Z,95.00
2023-04-01T01:56:23.727Z,95.20
2023-04-01T01:58:56.426Z,95.20
2023-04-01T02:01:31.547Z,94.00
2023-04-01T02:04:08.856Z,93.80
2023-04-01T02:06:42.422Z,94.00
2023-04-01T02:09:12.067Z,94.60
2023-04-01T02:11:54.471Z,95.00
2023-04-01T02:14:26.852Z,95.20
2023-04-01T02:16:57.745Z,93.90
2023-04-01T02:19:31.364Z,94.60
2023-04-01T02:22:03.681Z,94.80
2023-04-01T02:24:34.547Z,95.40
2023-04-01T02:27:02.417Z,94.40
2023-04-01T02:29:31.632Z,94.50
2023-04-01T02:32:01.033Z,94.80
2023-04-01T02:34:29.044Z,93.90
2023-04-01T02:36:57.927Z,94.40
2023-04-01T02:39:27.347Z,94.60
2023-04-01T02:41:55.147Z,94.50
2023-04-01T02:44:23.072Z,94.60
2023-04-01T02:46:50.930Z,94.70
2023-04-01T02:49:18.628Z,94.40
2023-04-01T02:51:46.863Z,93.50
2023-04-01T02:54:14.757Z,93.70
2023-04-01T02:56:43.314Z,92.60
2023-04-01T02:59:10.981Z,93.20
2023-04-01T03:01:39.053Z,93.00
2023-04-01T03:04:06.778Z,93.30
2023-04-01T03:06:34.511Z,93.00
2023-04-01T03:09:02.216Z,92.30
2023-04-01T03:11:30.223Z,92.70
2023-04-01T03:13:57.852Z,93.30
2023-04-01T03:16:25.727Z,93.50
2023-04-01T03:18:54.436Z,93.80
2023-04-01T03:21:25.433Z,94.10
2023-04-01T03:23:53.584Z,94.60
2023-04-01T03:26:22.576Z,94.40
2023-04-01T03:28:50.574Z,93.40
2023-04-01T03:31:18.389Z,93.10
2023-04-01T03:33:52.102Z,93.40
2023-04-01T03:36:19.820Z,93.50
2023-04-01T03:38:48.129Z,93.50
2023-04-01T03:41:21.979Z,93.40
2023-04-01T03:43:49.712Z,93.50
2023-04-01T03:46:21.423Z,94.10
2023-04-01T03:48:49.386Z,94.30
2023-04-01T03:51:17.118Z,94.90
2023-04-01T03:53:44.859Z,95.20
2023-04-01T03:56:13.221Z,95.50
2023-04-01T03:58:40.911Z,96.30
2023-04-01T04:01:24.470Z,96.60
2023-04-01T04:03:55.949Z,97.10
2023-04-01T04:06:25.493Z,96.60
2023-04-01T04:08:54.180Z,96.50
2023-04-01T04:11:23.611Z,96.50
2023-04-01T04:13:54.022Z,97.60
2023-04-01T04:16:22.145Z,96.90
2023-04-01T04:18:56.776Z,96.90
2023-04-01T04:21:24.745Z,95.90
2023-04-01T04:23:52.726Z,96.40
2023-04-01T04:26:21.917Z,96.60
2023-04-01T04:28:58.638Z,97.60
2023-04-01T04:31:27.428Z,97.50
2023-04-01T04:33:57.572Z,98.30
2023-04-01T04:36:25.437Z,98.70
2023-04-01T04:38:54.161Z,98.60
2023-04-01T04:41:23.215Z,99.50
2023-04-01T04:43:55.221Z,99.40
2023-04-01T04:46:25.193Z,98.80
2023-04-01T04:48:59.274Z,98.70
2023-04-01T04:51:27.441Z,98.30
2023-04-01T04:53:55.095Z,98.50
2023-04-01T04:56:32.573Z,97.10
2023-04-01T04:59:08.828Z,97.40
2023-04-01T05:02:02.913Z,96.30
2023-04-01T05:04:31.123Z,96.50
2023-04-01T05:06:58.983Z,96.70
2023-04-01T05:09:27.052Z,96.10
2023-04-01T05:11:54.886Z,95.30
2023-04-01T05:14:23.451Z,95.80
2023-04-01T05:16:59.548Z,95.70
2023-04-01T05:19:27.315Z,95.20
2023-04-01T05:21:55.010Z,95.40
2023-04-01T05:24:22.744Z,95.70
2023-04-01T05:26:51.922Z,94.40
2023-04-01T05:29:19.899Z,94.60
2023-04-01T05:31:52.064Z,94.00
2023-04-01T05:34:19.658Z,94.10
2023-04-01T05:36:47.495Z,93.80
2023-04-01T05:39:15.421Z,93.60
2023-04-01T05:41:43.399Z,93.80
2023-04-01T05:44:13.420Z,93.60
2023-04-01T05:46:41.271Z,93.30
2023-04-01T05:49:18.415Z,93.20
2023-04-01T05:51:46.229Z,92.60
2023-04-01T05:54:13.930Z,92.90
2023-04-01T05:56:42.510Z,92.50
2023-04-01T05:59:14.019Z,91.40
2023-04-01T06:01:43.102Z,92.70
2023-04-01T06:04:18.859Z,91.80
2023-04-01T06:06:47.360Z,91.90
2023-04-01T06:09:18.353Z,91.80
2023-04-01T06:12:13.794Z,90.20
2023-04-01T06:15:01.247Z,91.20
2023-04-01T06:17:48.163Z,90.30
2023-04-01T06:21:04.206Z,89.10
2023-04-01T06:24:17.115Z,89.00
2023-04-01T06:27:17.285Z,89.00
2023-04-01T06:30:12.674Z,86.40
2023-04-01T06:33:00.043Z,88.00
2023-04-01T06:35:32.153Z,86.50
2023-04-01T06:38:05.813Z,88.30
2023-04-01T06:40:39.863Z,89.10
2023-04-01T06:43:42.858Z,88.40
2023-04-01T06:46:24.442Z,89.50
2023-04-01T06:49:41.855Z,89.10
2023-04-01T06:53:07.407Z,89.70
2023-04-01T06:56:00.747Z,89.90
2023-04-01T06:58:48.048Z,90.00
2023-04-01T07:01:40.233Z,89.50
2023-04-01T07:04:15.826Z,87.90
2023-04-01T07:06:58.789Z,88.60
2023-04-01T07:09:33.227Z,88.30
2023-04-01T07:12:33.152Z,87.30
2023-04-01T07:15:57.958Z,88.40
2023-04-01T07:18:38.977Z,88.10
2023-04-01T07:21:18.569Z,88.80
2023-04-01T07:23:48.486Z,88.30
2023-04-01T07:26:31.059Z,89.20
2023-04-01T07:28:59.112Z,88.20
2023-04-01T07:31:51.218Z,87.80
2023-04-01T07:34:18.799Z,87.50
2023-04-01T07:37:07.579Z,88.00
2023-04-01T07:39:38.604Z,87.90
2023-04-01T07:42:47.583Z,87.80
2023-04-01T07:45:34.925Z,89.50
2023-04-01T07:48:29.366Z,90.60
2023-04-01T07:51:04.663Z,89.90
2023-04-01T07:53:48.323Z,90.00
2023-04-01T07:56:44.835Z,90.10
2023-04-01T07:59:23.484Z,90.40
2023-04-01T08:02:14.869Z,88.40
2023-04-01T08:04:59.833Z,88.60
2023-04-01T08:07:42.144Z,88.00
2023-04-01T08:10:36.023Z,89.30
2023-04-01T08:13:54.661Z,89.30
2023-04-01T08:17:06.338Z,87.60
2023-04-01T08:19:58.829Z,89.30
2023-04-01T08:22:39.014Z,87.20
2023-04-01T08:25:28.260Z,87.40
2023-04-01T08:28:24.219Z,88.40
2023-04-01T08:30:54.819Z,89.70
2023-04-01T08:33:28.363Z,89.80
2023-04-01T08:36:32.417Z,89.60
2023-04-01T08:39:34.102Z,90.10
2023-04-01T08:42:27.572Z,88.00
2023-04-01T08:45:28.480Z,90.00
2023-04-01T08:48:09.604Z,88.00
2023-04-01T08:51:09.986Z,89.30
2023-04-01T08:53:48.408Z,86.70
2023-04-01T08:56:27.135Z,87.30
2023-04-01T08:59:05.968Z,89.10
2023-04-01T09:02:08.866Z,87.50
2023-04-01T09:05:13.587Z,87.10
2023-04-01T09:08:20.730Z,86.00
2023-04-01T09:11:06.716Z,88.20
2023-04-01T09:14:26.399Z,88.60
2023-04-01T09:17:44.380Z,89.90
2023-04-01T09:20:40.885Z,88.40
2023-04-01T09:23:30.515Z,87.30
2023-04-01T09:26:10.606Z,89.50
2023-04-01T09:29:09.590Z,88.90
2023-04-01T09:31:43.202Z,88.90
2023-04-01T09:34:55.938Z,88.20
2023-04-01T09:38:05.300Z,86.60
2023-04-01T09:41:09.761Z,88.80
2023-04-01T09:44:06.865Z,85.60
2023-04-01T09:47:07.879Z,86.50
2023-04-01T09:50:01.283Z,86.10
2023-04-01T09:52:53.494Z,86.50
2023-04-01T09:56:05.666Z,86.40
2023-04-01T09:59:13.053Z,87.70
2023-04-01T10:02:12.763Z,85.50
2023-04-01T10:05:17.905Z,85.40
2023-04-01T10:08:03.618Z,83.80
2023-04-01T10:10:46.719Z,84.80
2023-04-01T10:13:45.793Z,83.70
2023-04-01T10:16:28.575Z,84.70
2023-04-01T10:19:21.046Z,85.60
2023-04-01T10:22:10.058Z,86.10
2023-04-01T10:25:15.731Z,83.60
2023-04-01T10:28:20.019Z,82.90
2023-04-01T10:31:29.105Z,83.40
2023-04-01T10:34:34.435Z,84.90
2023-04-01T10:37:34.015Z,83.00
2023-04-01T10:40:28.761Z,84.20
2023-04-01T10:43:53.515Z,82.70
2023-04-01T10:46:48.986Z,84.70
2023-04-01T10:49:43.724Z,83.80
2023-04-01T10:52:38.789Z,81.90
2023-04-01T10:56:29.423Z,84.60
2023-04-01T10:59:57.322Z,82.50
2023-04-01T11:03:02.625Z,83.20
2023-04-01T11:06:19.793Z,84.90
2023-04-01T11:08:59.863Z,82.90
2023-04-01T11:11:46.380Z,80.90
2023-04-01T11:14:39.030Z,83.50
2023-04-01T11:17:49.696Z,82.90
2023-04-01T11:20:42.054Z,82.00
2023-04-01T11:23:38.808Z,82.50
2023-04-01T11:26:34.802Z,81.40
2023-04-01T11:29:44.410Z,79.30
2023-04-01T11:32:26.244Z,82.10
2023-04-01T11:35:26.336Z,80.10
2023-04-01T11:38:02.957Z,81.30
2023-04-01T11:41:13.559Z,81.50
2023-04-01T11:44:08.774Z,81.80
2023-04-01T11:47:58.105Z,82.00
2023-04-01T11:50:44.591Z,81.70
2023-04-01T11:53:24.145Z,83.10
2023-04-01T11:56:12.817Z,81.10
2023-04-01T11:59:26.830Z,82.10
2023-04-01T12:02:09.259Z,81.60
2023-04-01T12:05:05.236Z,82.10
2023-04-01T12:08:12.236Z,82.50
2023-04-01T12:11:17.300Z,81.30
2023-04-01T12:14:17.988Z,82.00
2023-04-01T12:17:09.809Z,80.40
2023-04-01T12:20:03.067Z,80.50
2023-04-01T12:23:00.184Z,80.60
2023-04-01T12:25:56.830Z,79.90
2023-04-01T12:28:50.865Z,80.20
2023-04-01T12:31:25.042Z,79.70
2023-04-01T12:34:04.946Z,79.40
2023-04-01T12:36:43.511Z,77.80
2023-04-01T12:39:29.966Z,79.10
2023-04-01T12:42:03.883Z,79.00
2023-04-01T12:44:46.479Z,77.20
2023-04-01T12:47:44.087Z,77.60
2023-04-01T12:50:32.759Z,77.80
2023-04-01T12:53:27.547Z,78.20
2023-04-01T12:55:57.057Z,79.00
2023-04-01T12:58:41.289Z,78.30
2023-04-01T13:01:30.297Z,78.90
2023-04-01T13:04:34.997Z,76.90
2023-04-01T13:07:24.424Z,78.20
2023-04-01T13:10:01.011Z,78.70
2023-04-01T13:13:07.748Z,77.80
2023-04-01T13:15:56.113Z,78.60
2023-04-01T13:18:39.515Z,75.10
2023-04-01T13:21:26.328Z,73.60
2023-04-01T13:24:02.708Z,74.40
2023-04-01T13:26:50.594Z,76.90
2023-04-01T13:29:24.729Z,74.00
2023-04-01T13:31:57.092Z,73.70
2023-04-01T13:34:33.727Z,72.90
2023-04-01T13:37:38.590Z,70.60
2023-04-01T13:40:33.536Z,73.10
2023-04-01T13:43:06.423Z,71.00
2023-04-01T13:45:55.303Z,70.20
2023-04-01T13:48:41.535Z,71.20
2023-04-01T13:51:38.498Z,71.10
2023-04-01T13:54:30.198Z,70.40
2023-04-01T13:57:06.908Z,70.80
2023-04-01T14:00:08.765Z,72.40
2023-04-01T14:03:09.602Z,70.80
2023-04-01T14:06:14.511Z,69.30
2023-04-01T14:09:04.287Z,72.50
2023-04-01T14:11:52.802Z,70.40
2023-04-01T14:14:26.287Z,73.20
2023-04-01T14:17:26.780Z,73.20
2023-04-01T14:20:28.915Z,75.80
2023-04-01T14:23:21.348Z,77.10
2023-04-01T14:26:19.374Z,78.60
2023-04-01T14:29:01.328Z,81.80
2023-04-01T14:32:01.502Z,83.30
2023-04-01T14:34:41.281Z,88.50
2023-04-01T14:37:20.487Z,86.50
2023-04-01T14:40:00.421Z,87.80
2023-04-01T14:43:06.360Z,90.00
2023-04-01T14:45:52.277Z,90.50
2023-04-01T14:48:23.081Z,87.00
2023-04-01T14:50:56.910Z,87.20
2023-04-01T14:53:24.608Z,89.10
2023-04-01T14:56:01.522Z,82.70
2023-04-01T14:58:48.297Z,84.80
2023-04-01T15:01:27.574Z,85.10
2023-04-01T15:04:21.810Z,85.30
2023-04-01T15:07:21.000Z,81.90
2023-04-01T15:09:57.677Z,84.80
2023-04-01T15:12:28.333Z,83.30
2023-04-01T15:15:12.155Z,84.60
2023-04-01T15:17:59.599Z,83.60
2023-04-01T15:21:03.519Z,85.00
2023-04-01T15:23:49.733Z,82.90
2023-04-01T15:26:43.644Z,80.80
2023-04-01T15:29:23.684Z,82.70
2023-04-01T15:32:20.139Z,83.00
2023-04-01T15:35:12.552Z,81.40
2023-04-01T15:37:57.788Z,80.90
2023-04-01T15:40:32.012Z,80.20
2023-04-01T15:43:30.740Z,79.90
2023-04-01T15:46:23.189Z,80.90
2023-04-01T15:49:23.824Z,81.40
2023-04-01T15:52:03.761Z,79.10
2023-04-01T15:55:09.226Z,81.30
2023-04-01T15:58:04.944Z,80.10
2023-04-01T16:00:36.426Z,80.00
2023-04-01T16:03:48.557Z,80.80
2023-04-01T16:06:41.644Z,81.20
2023-04-01T16:09:23.617Z,81.20
2023-04-01T16:11:59.154Z,81.50
2023-04-01T16:14:56.873Z,79.50
2023-04-01T16:17:46.117Z,80.50
2023-04-01T16:20:21.944Z,80.00
2023-04-01T16:22:52.737Z,81.30
2023-04-01T16:25:26.185Z,80.80
2023-04-01T16:28:33.858Z,81.50
2023-04-01T16:31:07.098Z,80.00
2023-04-01T16:33:44.864Z,80.60
2023-04-01T16:36:38.980Z,80.50
2023-04-01T16:39:29.317Z,81.50
2023-04-01T16:42:42.580Z,80.80
2023-04-01T16:45:10.717Z,81.10
2023-04-01T16:48:11.566Z,80.20
2023-04-01T16:50:54.267Z,80.80
2023-04-01T16:53:37.298Z,81.80
2023-04-01T16:56:23.809Z,81.20
2023-04-01T16:59:29.258Z,82.10
2023-04-01T17:02:13.678Z,81.10
2023-04-01T17:04:46.276Z,82.10
2023-04-01T17:07:21.795Z,82.10
2023-04-01T17:10:26.722Z,82.50
2023-04-01T17:13:32.599Z,82.20
2023-04-01T17:16:43.334Z,82.80
2023-04-01T17:19:21.110Z,83.60
2023-04-01T17:22:21.036Z,83.30
2023-04-01T17:25:06.048Z,83.50
2023-04-01T17:27:37.081Z,83.80
2023-04-01T17:30:24.347Z,83.30
2023-04-01T17:33:21.809Z,83.10
2023-04-01T17:36:20.908Z,83.40
2023-04-01T17:39:17.746Z,82.20
2023-04-01T17:41:55.936Z,82.30
2023-04-01T17:44:30.497Z,81.80
2023-04-01T17:47:05.069Z,82.10
2023-04-01T17:49:55.792Z,82.10
2023-04-01T17:52:41.750Z,82.30
2023-04-01T17:55:42.350Z,82.00
2023-04-01T17:58:23.654Z,82.20
2023-04-01T18:01:13.077Z,81.10
2023-04-01T18:04:14.395Z,81.80
2023-04-01T18:07:16.450Z,82.80
2023-04-01T18:10:26.328Z,82.60
2023-04-01T18:13:13.845Z,82.50
2023-04-01T18:15:57.296Z,82.50
2023-04-01T18:18:48.428Z,82.30
2023-04-01T18:21:35.998Z,81.90
2023-04-01T18:24:49.616Z,82.10
2023-04-01T18:27:26.355Z,81.80
2023-04-01T18:30:13.111Z,82.20
2023-04-01T18:33:01.929Z,82.90
2023-04-01T18:35:50.113Z,81.70
2023-04-01T18:38:35.245Z,81.70
2023-04-01T18:41:35.659Z,82.80
2023-04-01T18:44:29.545Z,82.20
2023-04-01T18:47:18.834Z,81.10
2023-04-01T18:50:00.504Z,82.50
2023-04-01T18:52:37.388Z,82.00
2023-04-01T18:55:06.414Z,82.00
2023-04-01T18:58:15.438Z,83.10
2023-04-01T19:00:52.319Z,82.70
2023-04-01T19:03:35.656Z,82.80
2023-04-01T19:06:43.831Z,82.90
2023-04-01T19:09:26.399Z,83.20
2023-04-01T19:12:07.329Z,83.90
2023-04-01T19:14:49.965Z,84.00
2023-04-01T19:17:34.664Z,84.30
2023-04-01T19:20:12.441Z,83.40
2023-04-01T19:22:51.898Z,84.70
2023-04-01T19:25:28.788Z,85.60
2023-04-01T19:28:05.218Z,85.40
2023-04-01T19:30:49.543Z,84.60
2023-04-01T19:33:55.978Z,85.10
2023-04-01T19:36:49.509Z,86.10
2023-04-01T19:39:38.040Z,87.00
2023-04-01T19:42:27.396Z,86.80
2023-04-01T19:45:00.812Z,87.90
2023-04-01T19:48:12.249Z,88.30
2023-04-01T19:50:58.325Z,88.40
2023-04-01T19:53:42.267Z,90.00
2023-04-01T19:56:18.537Z,90.10
2023-04-01T19:58:53.624Z,90.40
2023-04-01T20:01:44.919Z,90.60
2023-04-01T20:04:39.970Z,90.80
2023-04-01T20:07:09.403Z,91.60
2023-04-01T20:09:52.706Z,92.90
2023-04-01T20:12:49.796Z,91.20
2023-04-01T20:15:42.923Z,91.60
2023-04-01T20:18:34.391Z,91.60
2023-04-01T20:21:29.145Z,92.40
2023-04-01T20:24:17.184Z,92.80
2023-04-01T20:26:54.799Z,92.00
2023-04-01T20:29:47.160Z,93.30
2023-04-01T20:32:26.057Z,94.20
2023-04-01T20:35:00.365Z,93.30
2023-04-01T20:37:36.967Z,93.60
2023-04-01T20:40:31.546Z,93.90
2023-04-01T20:43:18.296Z,94.10
2023-04-01T20:46:21.177Z,93.90
2023-04-01T20:49:07.288Z,92.90
2023-04-01T20:51:40.318Z,93.20
2023-04-01T20:54:34.067Z,92.60
2023-04-01T20:57:07.983Z,91.50
2023-04-01T21:00:17.578Z,91.60
2023-04-01T21:03:03.979Z,91.70
2023-04-01T21:05:57.873Z,93.30
2023-04-01T21:08:52.329Z,93.10
2023-04-01T21:11:26.080Z,93.30
2023-04-01T21:14:35.298Z,94.00
2023-04-01T21:17:39.099Z,93.60
2023-04-01T21:20:31.355Z,92.80
2023-04-01T21:23:30.270Z,93.10
2023-04-01T21:26:11.611Z,92.10
2023-04-01T21:29:01.808Z,92.60
2023-04-01T21:31:52.667Z,92.70
2023-04-01T21:34:57.892Z,92.20
2023-04-01T21:37:37.519Z,92.60
2023-04-01T21:40:18.692Z,93.30
2023-04-01T21:43:09.654Z,93.00
2023-04-01T21:45:43.466Z,93.70
2023-04-01T21:48:29.844Z,93.30
2023-04-01T21:51:00.573Z,93.60
2023-04-01T21:53:37.196Z,94.90
2023-04-01T21:56:16.893Z,94.60
2023-04-01T21:59:15.895Z,95.20
2023-04-01T22:02:02.174Z,95.80
2023-04-01T22:04:44.096Z,94.40
2023-04-01T22:07:30.972Z,94.90
2023-04-01T22:10:11.154Z,95.10
2023-04-01T22:12:44.522Z,96.10
2023-04-01T22:15:46.149Z,96.70
2023-04-01T22:18:35.356Z,97.20
2023-04-01T22:21:25.534Z,98.50
2023-04-01T22:24:06.276Z,97.70
2023-04-01T22:26:47.056Z,97.80
2023-04-01T22:29:58.955Z,99.90
2023-04-01T22:32:46.246Z,98.80
2023-04-01T22:35:29.168Z,97.90
2023-04-01T22:38:42.054Z,97.50
2023-04-01T22:41:22.104Z,98.10
2023-04-01T22:43:51.205Z,99.90
2023-04-01T22:46:50.188Z,98.50
2023-04-01T22:49:29.859Z,99.90
2023-04-01T22:52:18.014Z,99.40
2023-04-01T22:54:54.542Z,99.30
2023-04-01T22:57:31.635Z,99.90
2023-04-01T23:00:10.535Z,99.90
2023-04-01T23:02:42.530Z,99.90
2023-04-01T23:05:18.472Z,99.90
2023-04-01T23:08:01.433Z,99.90
2023-04-01T23:10:47.699Z,99.90
2023-04-01T23:13:20.770Z,99.90
2023-04-01T23:15:49.350Z,99.90
2023-04-01T23:18:48.036Z,99.90
2023-04-01T23:21:54.986Z,99.90
2023-04-01T23:24:31.576Z,99.70
2023-04-01T23:27:13.943Z,98.70
2023-04-01T23:29:43.722Z,96.60
2023-04-01T23:32:19.960Z,96.10
2023-04-01T23:34:51.259Z,95.60
2023-04-01T23:37:21.068Z,96.30
2023-04-01T23:39:54.791Z,95.80
2023-04-01T23:42:31.716Z,95.70
2023-04-01T23:45:05.186Z,96.00
2023-04-01T23:47:36.401Z,95.90
2023-04-01T23:50:17.686Z,94.90
2023-04-01T23:53:05.717Z,94.30
2023-04-01T23:55:35.165Z,94.20
2023-04-01T23:58:29.903Z,94.70
